Terminal Aerodrome Forecast
Issued by NWS

Home | Current Version | Previous Version | Graphics & Text | Print | Product List | Glossary On
Versions: 1 2 3 4 5 6 7 8 9 10 11 12 13 14 15 16 17
000
FTUS42 KMHX 041720
TAFISO
TAF
KISO 041720Z 0418/0518 25015G22KT P6SM VCTS SCT050CB SCT100
     FM050000 21006KT P6SM VCTS SCT050CB BKN100
     FM050600 VRB03KT P6SM SCT100
     FM051200 23007KT P6SM BKN250
      AMD LTD TO CLD VIS AND WIND=

USA.gov is the U.S. government's official web portal to all federal, state and local government web resources and services.